createdAt,value
2023-03-15T00:00:56.179Z,2.89
2023-03-15T00:03:27.107Z,2.92
2023-03-15T00:05:54.900Z,2.92
2023-03-15T00:08:22.736Z,2.86
2023-03-15T00:10:50.449Z,2.84
2023-03-15T00:13:18.453Z,2.82
2023-03-15T00:15:50.995Z,2.78
2023-03-15T00:18:19.693Z,2.78
2023-03-15T00:20:48.467Z,2.80
2023-03-15T00:23:16.787Z,2.75
2023-03-15T00:25:45.749Z,2.73
2023-03-15T00:28:13.678Z,2.73
2023-03-15T00:30:41.444Z,2.71
2023-03-15T00:33:10.080Z,2.69
2023-03-15T00:35:42.864Z,2.68
2023-03-15T00:38:11.390Z,2.66
2023-03-15T00:40:39.233Z,2.65
2023-03-15T00:43:06.968Z,2.67
2023-03-15T00:45:35.471Z,2.68
2023-03-15T00:48:03.183Z,2.67
2023-03-15T00:50:31.068Z,2.69
2023-03-15T00:52:58.824Z,2.72
2023-03-15T00:55:29.060Z,2.75
2023-03-15T00:57:57.058Z,2.75
2023-03-15T01:00:25.235Z,2.77
2023-03-15T01:02:56.409Z,2.80
2023-03-15T01:05:24.413Z,2.75
2023-03-15T01:07:52.662Z,2.76
2023-03-15T01:10:20.502Z,2.75
2023-03-15T01:12:48.249Z,2.72
2023-03-15T01:15:16.413Z,2.74
2023-03-15T01:17:45.012Z,2.70
2023-03-15T01:20:15.373Z,2.66
2023-03-15T01:22:43.274Z,2.64
2023-03-15T01:25:11.061Z,2.60
2023-03-15T01:27:38.973Z,2.61
2023-03-15T01:30:07.246Z,2.61
2023-03-15T01:32:35.250Z,2.55
2023-03-15T01:35:03.140Z,2.53
2023-03-15T01:37:31.107Z,2.49
2023-03-15T01:39:59.161Z,2.47
2023-03-15T01:42:26.834Z,2.49
2023-03-15T01:45:02.360Z,2.49
2023-03-15T01:47:32.898Z,2.47
2023-03-15T01:50:11.608Z,2.46
2023-03-15T01:52:41.992Z,2.43
2023-03-15T01:55:19.783Z,2.44
2023-03-15T01:57:59.777Z,2.45
2023-03-15T02:00:29.934Z,2.48
2023-03-15T02:03:09.918Z,2.48
2023-03-15T02:05:46.811Z,2.50
2023-03-15T02:08:28.369Z,2.53
2023-03-15T02:10:58.789Z,2.55
2023-03-15T02:13:29.557Z,2.56
2023-03-15T02:16:00.692Z,2.61
2023-03-15T02:18:38.165Z,2.64
2023-03-15T02:21:39.578Z,2.68
2023-03-15T02:24:48.148Z,2.71
2023-03-15T02:27:28.042Z,2.72
2023-03-15T02:29:55.870Z,2.74
2023-03-15T02:32:23.849Z,2.76
2023-03-15T02:34:51.679Z,2.80
2023-03-15T02:37:19.374Z,2.82
2023-03-15T02:39:47.910Z,2.82
2023-03-15T02:42:16.800Z,2.82
2023-03-15T02:44:45.469Z,2.80
2023-03-15T02:47:18.943Z,2.80
2023-03-15T02:49:50.500Z,2.81
2023-03-15T02:52:18.541Z,2.79
2023-03-15T02:54:46.419Z,2.80
2023-03-15T02:57:16.293Z,2.81
2023-03-15T02:59:45.927Z,2.80
2023-03-15T03:02:14.056Z,2.81
2023-03-15T03:04:43.463Z,2.77
2023-03-15T03:07:11.652Z,2.75
2023-03-15T03:09:56.336Z,2.74
2023-03-15T03:12:24.393Z,2.72
2023-03-15T03:14:52.255Z,2.65
2023-03-15T03:17:24.161Z,2.69
2023-03-15T03:19:52.683Z,2.68
2023-03-15T03:22:26.418Z,2.70
2023-03-15T03:25:15.203Z,2.64
2023-03-15T03:27:45.752Z,2.65
2023-03-15T03:30:15.136Z,2.63
2023-03-15T03:32:57.822Z,2.62
2023-03-15T03:35:26.991Z,2.62
2023-03-15T03:37:58.863Z,2.59
2023-03-15T03:40:33.197Z,2.56
2023-03-15T03:43:01.420Z,2.56
2023-03-15T03:45:29.977Z,2.59
2023-03-15T03:48:00.077Z,2.59
2023-03-15T03:50:28.107Z,2.59
2023-03-15T03:52:55.942Z,2.60
2023-03-15T03:55:27.957Z,2.58
2023-03-15T03:57:55.961Z,2.63
2023-03-15T04:00:47.100Z,2.64
2023-03-15T04:03:15.607Z,2.70
2023-03-15T04:05:48.077Z,2.72
2023-03-15T04:08:20.158Z,2.81
2023-03-15T04:10:56.443Z,2.84
2023-03-15T04:13:29.269Z,2.88
2023-03-15T04:16:01.565Z,2.96
2023-03-15T04:18:33.726Z,3.12
2023-03-15T04:21:01.696Z,3.30
2023-03-15T04:23:45.706Z,3.55
2023-03-15T04:26:39.509Z,3.53
2023-03-15T04:29:21.645Z,3.50
2023-03-15T04:32:02.352Z,3.43
2023-03-15T04:34:43.530Z,3.45
2023-03-15T04:37:33.691Z,3.50
2023-03-15T04:40:36.483Z,3.66
2023-03-15T04:43:30.829Z,3.69
2023-03-15T04:46:37.094Z,3.76
2023-03-15T04:49:25.131Z,4.02
2023-03-15T04:52:31.483Z,4.48
2023-03-15T04:55:19.227Z,5.09
2023-03-15T04:57:58.559Z,5.99
2023-03-15T05:01:01.425Z,6.24
2023-03-15T05:03:50.595Z,6.52
2023-03-15T05:06:50.690Z,6.47
2023-03-15T05:09:48.138Z,6.48
2023-03-15T05:12:33.894Z,6.50
2023-03-15T05:15:16.443Z,6.52
2023-03-15T05:17:48.308Z,6.42
2023-03-15T05:20:36.246Z,6.46
2023-03-15T05:23:18.449Z,6.46
2023-03-15T05:26:04.598Z,6.42
2023-03-15T05:28:52.523Z,6.55
2023-03-15T05:31:45.597Z,6.98
2023-03-15T05:34:34.948Z,7.09
2023-03-15T05:37:19.471Z,7.22
2023-03-15T05:40:11.653Z,7.25
2023-03-15T05:42:56.797Z,7.27
2023-03-15T05:45:31.254Z,7.18
2023-03-15T05:48:10.867Z,7.51
2023-03-15T05:51:10.981Z,7.93
2023-03-15T05:53:58.289Z,8.28
2023-03-15T05:56:34.855Z,8.75
2023-03-15T05:59:41.296Z,8.91
2023-03-15T06:02:44.936Z,9.32
2023-03-15T06:05:26.594Z,9.67
2023-03-15T06:07:57.131Z,9.78
2023-03-15T06:10:24.807Z,9.89
2023-03-15T06:12:55.577Z,10.13
2023-03-15T06:15:24.482Z,10.22
2023-03-15T06:17:53.562Z,10.24
2023-03-15T06:20:21.380Z,10.32
2023-03-15T06:22:49.386Z,10.51
2023-03-15T06:25:30.616Z,10.10
2023-03-15T06:27:59.324Z,9.44
2023-03-15T06:30:28.035Z,9.10
2023-03-15T06:33:00.209Z,9.28
2023-03-15T06:35:28.058Z,9.47
2023-03-15T06:37:56.093Z,9.71
2023-03-15T06:40:23.910Z,9.84
2023-03-15T06:42:51.697Z,9.73
2023-03-15T06:45:21.344Z,9.48
2023-03-15T06:47:50.316Z,9.04
2023-03-15T06:50:18.777Z,8.59
2023-03-15T06:52:46.675Z,8.25
2023-03-15T06:55:18.379Z,8.16
2023-03-15T06:57:46.769Z,8.00
2023-03-15T07:00:15.190Z,7.62
2023-03-15T07:02:43.046Z,7.27
2023-03-15T07:05:11.475Z,7.01
2023-03-15T07:07:39.511Z,6.87
2023-03-15T07:10:07.645Z,6.89
2023-03-15T07:12:35.396Z,7.02
2023-03-15T07:15:04.311Z,7.03
2023-03-15T07:17:32.288Z,6.98
2023-03-15T07:20:00.118Z,7.07
2023-03-15T07:22:27.988Z,7.05
2023-03-15T07:24:56.479Z,7.08
2023-03-15T07:27:24.199Z,7.17
2023-03-15T07:29:52.052Z,7.14
2023-03-15T07:32:19.873Z,7.04
2023-03-15T07:34:47.606Z,7.03
2023-03-15T07:37:15.962Z,7.27
2023-03-15T07:40:09.933Z,7.56
2023-03-15T07:42:37.713Z,7.93
2023-03-15T07:45:09.365Z,8.17
2023-03-15T07:47:37.114Z,8.28
2023-03-15T07:50:06.211Z,8.20
2023-03-15T07:52:33.951Z,8.14
2023-03-15T07:55:02.972Z,7.90
2023-03-15T07:57:33.504Z,7.84
2023-03-15T08:00:01.240Z,7.90
2023-03-15T08:02:30.620Z,7.69
2023-03-15T08:04:58.870Z,7.60
2023-03-15T08:07:26.777Z,7.38
2023-03-15T08:09:54.515Z,7.28
2023-03-15T08:12:22.205Z,7.11
2023-03-15T08:14:50.206Z,6.86
2023-03-15T08:17:18.730Z,6.71
2023-03-15T08:19:46.520Z,6.66
2023-03-15T08:22:14.385Z,6.63
2023-03-15T08:24:42.090Z,6.75
2023-03-15T08:27:10.190Z,6.88
2023-03-15T08:29:37.871Z,7.01
2023-03-15T08:32:05.946Z,7.11
2023-03-15T08:34:36.904Z,7.08
2023-03-15T08:37:04.816Z,7.06
2023-03-15T08:39:32.524Z,7.04
2023-03-15T08:42:00.234Z,7.03
2023-03-15T08:44:28.028Z,7.03
2023-03-15T08:46:55.815Z,7.14
2023-03-15T08:49:23.562Z,7.20
2023-03-15T08:51:51.431Z,7.24
2023-03-15T08:54:19.199Z,7.22
2023-03-15T08:56:47.097Z,7.14
2023-03-15T08:59:28.948Z,7.14
2023-03-15T09:02:00.576Z,7.21
2023-03-15T09:04:28.476Z,7.28
2023-03-15T09:06:56.301Z,7.37
2023-03-15T09:09:24.079Z,7.41
2023-03-15T09:11:51.846Z,7.36
2023-03-15T09:14:19.689Z,7.37
2023-03-15T09:16:47.410Z,7.33
2023-03-15T09:19:15.329Z,7.38
2023-03-15T09:21:45.210Z,7.41
2023-03-15T09:24:13.482Z,7.39
2023-03-15T09:26:41.413Z,7.42
2023-03-15T09:29:09.805Z,7.42
2023-03-15T09:31:37.668Z,7.48
2023-03-15T09:34:06.000Z,7.62
2023-03-15T09:36:36.228Z,7.76
2023-03-15T09:39:03.994Z,7.91
2023-03-15T09:41:49.650Z,8.13
2023-03-15T09:44:33.443Z,8.28
2023-03-15T09:47:25.980Z,8.33
2023-03-15T09:50:07.007Z,8.50
2023-03-15T09:52:37.807Z,8.74
2023-03-15T09:55:22.516Z,8.79
2023-03-15T09:58:04.422Z,8.88
2023-03-15T10:00:51.769Z,8.94
2023-03-15T10:03:49.355Z,9.15
2023-03-15T10:06:30.394Z,9.22
2023-03-15T10:09:00.067Z,9.16
2023-03-15T10:11:59.850Z,9.11
2023-03-15T10:14:59.934Z,8.86
2023-03-15T10:18:12.814Z,8.55
2023-03-15T10:20:50.062Z,8.40
2023-03-15T10:23:26.958Z,8.20
2023-03-15T10:25:55.378Z,8.07
2023-03-15T10:28:26.097Z,7.97
2023-03-15T10:30:53.902Z,7.92
2023-03-15T10:33:38.257Z,7.82
2023-03-15T10:36:32.302Z,7.84
2023-03-15T10:39:01.931Z,7.82
2023-03-15T10:41:37.933Z,7.96
2023-03-15T10:44:26.365Z,8.12
2023-03-15T10:47:22.150Z,8.19
2023-03-15T10:49:57.239Z,8.15
2023-03-15T10:52:38.495Z,8.13
2023-03-15T10:55:12.201Z,8.15
2023-03-15T10:57:51.708Z,8.21
2023-03-15T11:00:31.976Z,8.28
2023-03-15T11:03:23.688Z,8.41
2023-03-15T11:05:57.114Z,8.52
2023-03-15T11:08:45.204Z,8.64
2023-03-15T11:11:12.885Z,8.64
2023-03-15T11:13:42.162Z,8.63
2023-03-15T11:16:13.081Z,8.50
2023-03-15T11:18:46.618Z,8.43
2023-03-15T11:21:16.111Z,8.37
2023-03-15T11:23:49.468Z,8.34
2023-03-15T11:26:33.267Z,8.29
2023-03-15T11:29:11.270Z,8.39
2023-03-15T11:31:41.559Z,8.39
2023-03-15T11:34:16.749Z,8.38
2023-03-15T11:36:46.302Z,8.36
2023-03-15T11:39:16.510Z,8.26
2023-03-15T11:41:59.854Z,8.22
2023-03-15T11:44:37.848Z,8.04
2023-03-15T11:47:32.048Z,7.89
2023-03-15T11:50:00.194Z,7.80
2023-03-15T11:52:29.496Z,7.76
2023-03-15T11:54:59.519Z,7.64
2023-03-15T11:57:33.384Z,7.66
2023-03-15T12:00:36.458Z,7.54
2023-03-15T12:03:29.242Z,7.45
2023-03-15T12:06:07.466Z,7.38
2023-03-15T12:08:52.063Z,7.29
2023-03-15T12:11:22.822Z,7.29
2023-03-15T12:13:53.785Z,7.34
2023-03-15T12:16:22.810Z,7.34
2023-03-15T12:19:01.821Z,7.38
2023-03-15T12:21:54.346Z,7.36
2023-03-15T12:24:31.961Z,7.31
2023-03-15T12:27:07.143Z,7.27
2023-03-15T12:29:36.267Z,7.24
2023-03-15T12:32:03.939Z,7.30
2023-03-15T12:34:50.369Z,7.29
2023-03-15T12:37:29.909Z,7.23
2023-03-15T12:40:02.330Z,7.26
2023-03-15T12:42:33.116Z,7.27
2023-03-15T12:45:16.136Z,7.25
2023-03-15T12:48:06.635Z,7.18
2023-03-15T12:50:47.178Z,7.13
2023-03-15T12:53:24.523Z,7.08
2023-03-15T12:55:59.538Z,7.04
2023-03-15T12:58:36.182Z,6.97
2023-03-15T13:01:06.259Z,6.97
2023-03-15T13:03:37.110Z,6.94
2023-03-15T13:06:41.941Z,6.90
2023-03-15T13:09:23.690Z,6.79
2023-03-15T13:12:00.582Z,6.73
2023-03-15T13:14:46.936Z,6.74
2023-03-15T13:17:23.786Z,6.76
2023-03-15T13:20:26.752Z,6.70
2023-03-15T13:23:14.325Z,6.63
2023-03-15T13:26:00.334Z,6.52
2023-03-15T13:28:39.867Z,6.44
2023-03-15T13:31:22.260Z,6.36
2023-03-15T13:33:58.454Z,6.40
2023-03-15T13:36:46.413Z,6.38
2023-03-15T13:39:23.389Z,6.35
2023-03-15T13:42:04.013Z,6.34
2023-03-15T13:44:32.893Z,6.32
2023-03-15T13:47:00.713Z,6.32
2023-03-15T13:49:33.789Z,6.28
2023-03-15T13:52:03.901Z,6.31
2023-03-15T13:54:33.318Z,6.30
2023-03-15T13:57:05.178Z,6.31
2023-03-15T13:59:40.463Z,6.34
2023-03-15T14:02:15.944Z,6.28
2023-03-15T14:04:52.886Z,6.23
2023-03-15T14:07:40.461Z,6.17
2023-03-15T14:10:08.927Z,6.19
2023-03-15T14:12:36.868Z,6.16
2023-03-15T14:15:14.092Z,6.15
2023-03-15T14:17:58.184Z,6.11
2023-03-15T14:20:30.029Z,6.06
2023-03-15T14:23:00.947Z,6.01
2023-03-15T14:25:28.813Z,5.97
2023-03-15T14:28:00.779Z,5.94
2023-03-15T14:30:29.306Z,5.88
2023-03-15T14:33:00.239Z,5.85
2023-03-15T14:35:33.685Z,5.80
2023-03-15T14:38:15.831Z,5.76
2023-03-15T14:40:43.745Z,5.73
2023-03-15T14:43:11.546Z,5.66
2023-03-15T14:45:41.438Z,5.65
2023-03-15T14:48:24.998Z,5.59
2023-03-15T14:50:53.366Z,5.46
2023-03-15T14:53:23.569Z,5.38
2023-03-15T14:55:51.349Z,5.27
2023-03-15T14:58:21.638Z,5.22
2023-03-15T15:00:51.827Z,5.14
2023-03-15T15:03:38.974Z,5.11
2023-03-15T15:06:13.023Z,5.04
2023-03-15T15:08:43.258Z,4.97
2023-03-15T15:11:11.204Z,4.85
2023-03-15T15:13:40.342Z,4.78
2023-03-15T15:16:11.106Z,4.73
2023-03-15T15:18:41.845Z,4.67
2023-03-15T15:21:33.522Z,4.54
2023-03-15T15:24:06.607Z,4.49
2023-03-15T15:26:34.628Z,4.35
2023-03-15T15:29:03.303Z,4.26
2023-03-15T15:31:34.946Z,4.18
2023-03-15T15:34:02.993Z,4.12
2023-03-15T15:36:33.688Z,4.06
2023-03-15T15:39:06.381Z,3.99
2023-03-15T15:41:35.370Z,3.96
2023-03-15T15:44:04.402Z,3.91
2023-03-15T15:46:32.708Z,3.77
2023-03-15T15:49:00.610Z,3.69
2023-03-15T15:51:33.812Z,3.64
2023-03-15T15:54:01.827Z,3.65
2023-03-15T15:56:40.347Z,3.54
2023-03-15T15:59:11.067Z,3.46
2023-03-15T16:01:49.260Z,3.41
2023-03-15T16:04:24.908Z,3.40
2023-03-15T16:06:56.079Z,3.30
2023-03-15T16:09:25.707Z,3.28
2023-03-15T16:11:53.420Z,3.28
2023-03-15T16:14:22.724Z,3.22
2023-03-15T16:16:50.892Z,3.16
2023-03-15T16:19:18.638Z,3.02
2023-03-15T16:21:48.301Z,3.10
2023-03-15T16:24:23.095Z,3.09
2023-03-15T16:26:59.313Z,3.06
2023-03-15T16:29:33.057Z,3.07
2023-03-15T16:32:10.201Z,3.03
2023-03-15T16:34:45.393Z,3.02
2023-03-15T16:37:15.896Z,3.02
2023-03-15T16:39:46.935Z,3.00
2023-03-15T16:42:16.564Z,3.01
2023-03-15T16:44:44.678Z,3.04
2023-03-15T16:47:12.558Z,3.06
2023-03-15T16:49:40.911Z,3.01
2023-03-15T16:52:09.475Z,3.05
2023-03-15T16:54:41.415Z,3.06
2023-03-15T16:57:22.314Z,3.05
2023-03-15T16:59:51.204Z,3.09
2023-03-15T17:02:23.886Z,3.12
2023-03-15T17:04:55.485Z,3.14
2023-03-15T17:07:32.790Z,3.16
2023-03-15T17:10:06.600Z,3.17
2023-03-15T17:12:36.058Z,3.19
2023-03-15T17:15:05.735Z,3.20
2023-03-15T17:17:35.989Z,3.19
2023-03-15T17:20:22.161Z,3.23
2023-03-15T17:22:52.337Z,3.25
2023-03-15T17:25:21.233Z,3.25
2023-03-15T17:27:49.639Z,3.31
2023-03-15T17:30:29.523Z,3.35
2023-03-15T17:33:00.954Z,3.40
2023-03-15T17:35:51.435Z,3.41
2023-03-15T17:38:24.971Z,3.41
2023-03-15T17:40:53.690Z,3.41
2023-03-15T17:43:21.671Z,3.45
2023-03-15T17:45:49.814Z,3.45
2023-03-15T17:48:20.345Z,3.42
2023-03-15T17:50:48.318Z,3.40
2023-03-15T17:53:18.588Z,3.43
2023-03-15T17:55:48.173Z,3.42
2023-03-15T17:58:21.654Z,3.46
2023-03-15T18:00:54.778Z,3.44
2023-03-15T18:03:26.321Z,3.41
2023-03-15T18:05:54.353Z,3.38
2023-03-15T18:08:22.557Z,3.37
2023-03-15T18:10:51.235Z,3.36
2023-03-15T18:13:26.037Z,3.34
2023-03-15T18:15:53.982Z,3.37
2023-03-15T18:18:22.159Z,3.34
2023-03-15T18:20:50.592Z,3.36
2023-03-15T18:23:19.500Z,3.31
2023-03-15T18:25:48.510Z,3.34
2023-03-15T18:28:19.398Z,3.32
2023-03-15T18:30:51.398Z,3.32
2023-03-15T18:33:19.511Z,3.32
2023-03-15T18:35:47.328Z,3.28
2023-03-15T18:38:16.412Z,3.28
2023-03-15T18:40:44.439Z,3.30
2023-03-15T18:43:14.465Z,3.27
2023-03-15T18:45:42.546Z,3.30
2023-03-15T18:48:13.439Z,3.27
2023-03-15T18:50:42.768Z,3.26
2023-03-15T18:53:18.833Z,3.21
2023-03-15T18:55:49.715Z,3.18
2023-03-15T18:58:17.440Z,3.25
2023-03-15T19:00:45.359Z,3.25
2023-03-15T19:03:13.710Z,3.23
2023-03-15T19:05:41.955Z,3.19
2023-03-15T19:08:12.388Z,3.25
2023-03-15T19:10:42.562Z,3.22
2023-03-15T19:13:10.428Z,3.23
2023-03-15T19:15:38.265Z,3.22
2023-03-15T19:18:06.370Z,3.21
2023-03-15T19:20:35.104Z,3.22
2023-03-15T19:23:02.806Z,3.22
2023-03-15T19:25:30.619Z,3.20
2023-03-15T19:27:58.555Z,3.12
2023-03-15T19:30:27.807Z,3.14
2023-03-15T19:32:55.623Z,3.08
2023-03-15T19:35:23.790Z,3.10
2023-03-15T19:37:52.116Z,3.04
2023-03-15T19:40:20.806Z,3.06
2023-03-15T19:42:49.776Z,3.04
2023-03-15T19:45:18.420Z,3.03
2023-03-15T19:47:47.189Z,3.02
2023-03-15T19:50:15.641Z,3.01
2023-03-15T19:52:46.743Z,3.01
2023-03-15T19:55:16.881Z,2.96
2023-03-15T19:57:45.132Z,2.94
2023-03-15T20:00:16.131Z,2.93
2023-03-15T20:02:45.074Z,2.94
2023-03-15T20:05:15.523Z,2.94
2023-03-15T20:07:43.942Z,2.95
2023-03-15T20:10:13.040Z,2.91
2023-03-15T20:12:42.862Z,2.94
2023-03-15T20:15:12.307Z,2.96
2023-03-15T20:17:42.753Z,2.92
2023-03-15T20:20:13.916Z,2.94
2023-03-15T20:22:44.129Z,2.91
2023-03-15T20:25:17.094Z,2.91
2023-03-15T20:27:45.173Z,2.94
2023-03-15T20:30:17.249Z,2.93
2023-03-15T20:32:45.269Z,2.91
2023-03-15T20:35:13.123Z,2.88
2023-03-15T20:37:42.860Z,2.88
2023-03-15T20:40:12.961Z,2.90
2023-03-15T20:42:41.409Z,2.89
2023-03-15T20:45:09.946Z,2.86
2023-03-15T20:47:41.710Z,2.83
2023-03-15T20:50:12.659Z,2.75
2023-03-15T20:52:42.692Z,2.71
2023-03-15T20:55:12.207Z,2.65
2023-03-15T20:57:43.096Z,2.58
2023-03-15T21:00:16.794Z,2.56
2023-03-15T21:02:46.002Z,2.53
2023-03-15T21:05:20.049Z,2.52
2023-03-15T21:07:48.204Z,2.49
2023-03-15T21:10:18.167Z,2.47
2023-03-15T21:12:46.253Z,2.44
2023-03-15T21:15:20.542Z,2.39
2023-03-15T21:17:53.125Z,2.31
2023-03-15T21:20:21.581Z,2.19
2023-03-15T21:22:49.714Z,2.20
2023-03-15T21:25:17.844Z,2.17
2023-03-15T21:27:45.970Z,2.14
2023-03-15T21:30:14.365Z,2.14
2023-03-15T21:32:43.015Z,2.11
2023-03-15T21:35:11.496Z,2.11
2023-03-15T21:37:40.255Z,2.07
2023-03-15T21:40:09.646Z,2.01
2023-03-15T21:42:37.752Z,1.97
2023-03-15T21:45:08.193Z,1.96
2023-03-15T21:47:36.978Z,1.90
2023-03-15T21:50:07.767Z,1.85
2023-03-15T21:52:35.587Z,1.79
2023-03-15T21:55:03.657Z,1.77
2023-03-15T21:57:33.912Z,1.79
2023-03-15T22:00:01.677Z,1.81
2023-03-15T22:02:41.352Z,1.82
2023-03-15T22:05:12.330Z,1.85
2023-03-15T22:07:41.207Z,1.88
2023-03-15T22:10:10.008Z,1.89
2023-03-15T22:12:38.323Z,1.89
2023-03-15T22:15:07.902Z,1.90
2023-03-15T22:17:36.096Z,1.94
2023-03-15T22:20:17.507Z,1.92
2023-03-15T22:22:46.026Z,1.92
2023-03-15T22:25:14.302Z,1.91
2023-03-15T22:27:42.135Z,1.90
2023-03-15T22:30:13.766Z,1.87
2023-03-15T22:32:44.887Z,1.87
2023-03-15T22:35:14.516Z,1.89
2023-03-15T22:37:44.651Z,1.88
2023-03-15T22:40:16.407Z,1.91
2023-03-15T22:42:46.244Z,1.89
2023-03-15T22:45:14.111Z,1.90
2023-03-15T22:47:41.785Z,1.94
2023-03-15T22:50:13.424Z,1.97
2023-03-15T22:52:41.190Z,1.95
2023-03-15T22:55:10.538Z,1.99
2023-03-15T22:57:38.528Z,2.02
2023-03-15T23:00:08.308Z,2.01
2023-03-15T23:02:36.374Z,2.00
2023-03-15T23:05:04.940Z,1.97
2023-03-15T23:07:32.738Z,2.02
2023-03-15T23:10:00.951Z,2.02
2023-03-15T23:12:35.929Z,2.08
2023-03-15T23:15:04.948Z,2.10
2023-03-15T23:17:32.856Z,2.07
2023-03-15T23:20:00.506Z,2.05
2023-03-15T23:22:28.202Z,2.04
2023-03-15T23:24:58.235Z,1.99
2023-03-15T23:27:26.287Z,1.98
2023-03-15T23:29:55.433Z,1.93
2023-03-15T23:32:25.212Z,1.96
2023-03-15T23:34:53.856Z,1.97
2023-03-15T23:37:21.676Z,1.97
2023-03-15T23:39:49.353Z,1.98
2023-03-15T23:42:17.291Z,1.99
2023-03-15T23:44:44.972Z,1.99
2023-03-15T23:47:12.667Z,2.00
2023-03-15T23:49:40.878Z,2.02
2023-03-15T23:52:11.169Z,2.01
2023-03-15T23:54:42.435Z,1.99
2023-03-15T23:57:14.266Z,2.01
2023-03-15T23:59:42.677Z,1.97
